Time;durP1;ratioP1;P1;durP2;ratioP2;P2;SDS_P1;SDS_P2;PMS_P1;PMS_P2;Temp;Humidity;BMP_temperature;BMP_pressure;BME280_temperature;BME280_humidity;BME280_pressure;Samples;Min_cycle;Max_cycle;Signal;HPM_P1;HPM_P2
2023/08/25 00:00:57;;;;;;;;;13.25;13.00;;;;;30.10;35.26;98777.19;5075138;28;45457;-72
2023/08/25 00:03:22;;;;;;;;;14.00;13.50;;;;;30.05;35.73;98782.38;5074733;28;45455;-73
2023/08/25 00:05:52;;;;;;;;;16.50;12.75;;;;;30.02;35.79;98781.91;5074806;28;45482;-72
2023/08/25 00:08:17;;;;;;;;;16.50;16.00;;;;;29.99;36.52;98776.88;5074279;28;46338;-73
2023/08/25 00:10:42;;;;;;;;;15.75;13.25;;;;;29.90;36.08;98787.00;5074627;28;45535;-73
2023/08/25 00:13:08;;;;;;;;;16.25;16.25;;;;;29.81;36.27;98783.56;5073336;28;45459;-74
2023/08/25 00:15:33;;;;;;;;;15.75;15.00;;;;;29.74;36.30;98771.78;5074656;28;45638;-73
2023/08/25 00:17:58;;;;;;;;;12.00;12.00;;;;;29.69;36.41;98785.09;5074750;27;45394;-73
2023/08/25 00:20:25;;;;;;;;;16.25;14.50;;;;;29.66;36.61;98779.22;5074521;28;45410;-73
2023/08/25 00:22:51;;;;;;;;;16.25;15.00;;;;;29.60;36.99;98771.81;5074375;28;45451;-73
2023/08/25 00:25:16;;;;;;;;;12.00;12.00;;;;;29.55;36.74;98772.38;5074633;28;45333;-73
2023/08/25 00:27:42;;;;;;;;;15.75;14.50;;;;;29.51;37.31;98777.34;5074748;28;46332;-73
2023/08/25 00:30:10;;;;;;;;;17.25;17.25;;;;;29.47;37.09;98773.34;5074567;28;45579;-73
2023/08/25 00:32:37;;;;;;;;;13.75;13.00;;;;;29.44;36.43;98781.88;5074710;28;45620;-73
2023/08/25 00:35:02;;;;;;;;;14.75;14.50;;;;;29.44;36.66;98779.16;5074716;28;45427;-73
2023/08/25 00:37:28;;;;;;;;;15.75;14.50;;;;;29.46;36.67;98778.97;5073992;28;47776;-73
2023/08/25 00:39:53;;;;;;;;;13.75;12.25;;;;;29.47;36.72;98773.34;5074496;28;45428;-73
2023/08/25 00:42:19;;;;;;;;;15.25;15.25;;;;;29.48;36.66;98771.47;5074600;28;45481;-72
2023/08/25 00:44:44;;;;;;;;;15.75;14.00;;;;;29.45;36.98;98778.13;5075765;28;45401;-73
2023/08/25 00:47:10;;;;;;;;;17.50;17.50;;;;;29.43;37.63;98776.63;5077668;28;45431;-73
2023/08/25 00:49:37;;;;;;;;;13.50;13.50;;;;;29.39;37.43;98778.03;5078144;28;45423;-73
2023/08/25 00:52:03;;;;;;;;;14.25;14.25;;;;;29.37;37.57;98771.91;5077862;28;45325;-73
2023/08/25 00:54:29;;;;;;;;;14.50;13.50;;;;;29.33;37.09;98781.47;5078115;28;45359;-73
2023/08/25 00:56:56;;;;;;;;;14.25;14.25;;;;;29.28;37.55;98773.91;5077693;28;45566;-73
2023/08/25 00:59:22;;;;;;;;;13.00;12.50;;;;;29.28;37.76;98776.63;5078005;28;45629;-74
2023/08/25 01:01:48;;;;;;;;;15.00;14.25;;;;;29.29;37.23;98783.75;5078011;28;45446;-73
2023/08/25 01:04:13;;;;;;;;;16.50;14.25;;;;;29.29;37.60;98785.63;5077877;28;45410;-73
2023/08/25 01:06:39;;;;;;;;;14.25;13.00;;;;;29.29;37.25;98783.75;5076769;28;46669;-73
2023/08/25 01:09:06;;;;;;;;;6.25;5.50;;;;;29.28;37.23;98775.78;5110284;27;45481;-72
2023/08/25 01:11:51;;;;;;;;;18.25;16.50;;;;;29.23;37.91;98780.94;5077607;28;45406;-73
2023/08/25 01:14:35;;;;;;;;;13.25;13.25;;;;;29.19;37.75;98785.88;5077710;28;45515;-73
2023/08/25 01:17:18;;;;;;;;;14.50;14.50;;;;;29.17;37.35;98790.66;5077723;28;46281;-73
2023/08/25 01:19:47;;;;;;;;;15.40;14.20;;;;;29.14;37.62;98788.34;5077283;28;45434;-73
2023/08/25 01:22:21;;;;;;;;;14.00;13.75;;;;;29.13;37.51;98789.38;5077199;28;45288;-72
2023/08/25 01:24:52;;;;;;;;;12.25;12.00;;;;;29.11;37.48;98795.00;5077449;28;45320;-72
2023/08/25 01:27:18;;;;;;;;;14.25;13.25;;;;;29.10;37.65;98784.31;5077182;28;45433;-72
2023/08/25 01:29:43;;;;;;;;;11.20;11.20;;;;;29.09;37.81;98788.91;5077348;28;45345;-73
2023/08/25 01:32:09;;;;;;;;;15.25;14.25;;;;;29.07;38.00;98790.09;5077336;28;45464;-72
2023/08/25 01:34:34;;;;;;;;;11.75;11.75;;;;;29.03;38.56;98784.22;5077203;28;45411;-74
2023/08/25 01:37:13;;;;;;;;;17.00;14.75;;;;;28.98;39.11;98789.38;5077410;28;46456;-74
2023/08/25 01:39:42;;;;;;;;;14.25;14.25;;;;;28.91;38.99;98791.13;5077909;28;45359;-72
2023/08/25 01:42:09;;;;;;;;;18.75;14.75;;;;;28.83;38.53;98786.63;5075780;28;45437;-72
2023/08/25 01:44:36;;;;;;;;;18.25;15.50;;;;;28.78;39.10;98790.91;5076873;28;45522;-72
2023/08/25 01:47:05;;;;;;;;;16.00;13.75;;;;;28.72;38.50;98787.06;5076693;28;45768;-72
2023/08/25 01:49:31;;;;;;;;;13.00;13.00;;;;;28.68;38.99;98785.72;5077036;28;45350;-72
2023/08/25 01:51:58;;;;;;;;;15.50;15.50;;;;;28.65;38.92;98783.41;5076635;27;45463;-73
2023/08/25 01:54:24;;;;;;;;;16.25;14.75;;;;;28.60;39.29;98777.69;5076846;28;45467;-72
2023/08/25 01:56:49;;;;;;;;;16.75;14.00;;;;;28.55;39.68;98771.97;5091570;27;46291;-72
2023/08/25 01:59:15;;;;;;;;;17.50;15.75;;;;;28.44;39.66;98775.97;5076599;28;45432;-72
2023/08/25 02:01:40;;;;;;;;;16.25;12.25;;;;;28.41;39.50;98778.22;5076733;28;45376;-73
2023/08/25 02:04:05;;;;;;;;;16.50;16.50;;;;;28.40;39.87;98774.66;5076588;28;45443;-72
2023/08/25 02:06:32;;;;;;;;;19.50;18.50;;;;;28.37;39.94;98783.16;5075762;28;46303;-72
2023/08/25 02:08:57;;;;;;;;;13.80;13.80;;;;;28.35;39.87;98792.50;5076189;28;45422;-73
2023/08/25 02:11:23;;;;;;;;;20.75;19.75;;;;;28.30;40.12;98781.38;5076518;28;45298;-72
2023/08/25 02:13:49;;;;;;;;;15.00;15.00;;;;;28.24;40.44;98774.78;5076335;28;45487;-72
2023/08/25 02:16:14;;;;;;;;;20.00;17.25;;;;;28.20;40.54;98775.34;5076528;28;46086;-73
2023/08/25 02:18:40;;;;;;;;;15.75;15.75;;;;;28.18;41.07;98769.22;5076494;28;45392;-73
2023/08/25 02:21:06;;;;;;;;;17.75;15.75;;;;;28.15;40.62;98770.44;5075997;28;45471;-73
2023/08/25 02:23:31;;;;;;;;;16.50;16.00;;;;;28.12;40.65;98777.06;5076433;28;45381;-72
2023/08/25 02:25:56;;;;;;;;;21.00;18.25;;;;;28.11;40.88;98769.13;5076309;28;45293;-72
2023/08/25 02:28:22;;;;;;;;;16.75;16.75;;;;;28.09;40.74;98763.88;5076551;28;45431;-73
2023/08/25 02:30:47;;;;;;;;;14.25;14.25;;;;;28.08;41.01;98759.47;5074882;28;45369;-72
2023/08/25 02:33:13;;;;;;;;;17.50;16.25;;;;;28.08;40.99;98755.94;5076139;28;45368;-72
2023/08/25 02:35:39;;;;;;;;;18.75;16.75;;;;;28.06;41.64;98761.53;5076122;28;45375;-72
2023/08/25 02:38:06;;;;;;;;;18.25;16.25;;;;;28.03;41.06;98770.00;5076038;28;45395;-72
2023/08/25 02:40:33;;;;;;;;;20.00;19.00;;;;;28.00;41.62;98767.66;5074734;28;45475;-73
2023/08/25 02:43:03;;;;;;;;;18.25;17.25;;;;;27.97;41.58;98764.50;5076073;28;45369;-71
2023/08/25 02:45:29;;;;;;;;;21.25;20.00;;;;;27.88;41.58;98757.44;5075908;28;45471;-72
2023/08/25 02:47:54;;;;;;;;;19.75;18.25;;;;;27.82;41.74;98752.75;5075676;28;45460;-72
2023/08/25 02:50:21;;;;;;;;;14.25;12.25;;;;;27.78;41.94;98747.69;5076229;28;45410;-72
2023/08/25 02:52:48;;;;;;;;;16.00;15.50;;;;;27.77;42.41;98747.88;5075312;28;45428;-72
2023/08/25 02:55:19;;;;;;;;;13.50;13.50;;;;;27.71;42.69;98738.56;5075815;28;46503;-72
2023/08/25 02:57:48;;;;;;;;;18.25;15.75;;;;;27.67;42.42;98731.81;5075259;28;45434;-72
2023/08/25 03:00:23;;;;;;;;;14.50;14.50;;;;;27.64;42.21;98728.66;5075788;28;45451;-72
2023/08/25 03:02:49;;;;;;;;;16.25;15.75;;;;;27.61;42.51;98724.44;5075751;27;45279;-71
2023/08/25 03:05:14;;;;;;;;;16.75;15.00;;;;;27.59;43.21;98723.78;5075564;27;45351;-71
2023/08/25 03:07:40;;;;;;;;;16.75;16.25;;;;;27.56;42.54;98717.81;5074326;27;45395;-72
2023/08/25 03:10:07;;;;;;;;;16.50;16.50;;;;;27.53;43.04;98712.75;5075697;28;46020;-72
2023/08/25 03:12:32;;;;;;;;;18.00;17.50;;;;;27.46;42.89;98712.66;5075613;28;45516;-72
2023/08/25 03:14:58;;;;;;;;;17.50;16.50;;;;;27.41;42.96;98710.47;5075093;28;46476;-72
2023/08/25 03:17:24;;;;;;;;;19.50;17.25;;;;;27.37;43.32;98705.59;5075415;28;45407;-73
2023/08/25 03:19:50;;;;;;;;;14.00;14.00;;;;;27.31;43.52;98703.59;5075651;28;45405;-73
2023/08/25 03:22:15;;;;;;;;;17.25;14.75;;;;;27.26;43.56;98703.28;5074961;28;45506;-73
2023/08/25 03:24:41;;;;;;;;;19.50;17.25;;;;;27.20;43.87;98701.28;5075394;28;46362;-72
2023/08/25 03:27:06;;;;;;;;;16.25;16.25;;;;;27.15;43.72;98704.50;5075493;28;45426;-72
2023/08/25 03:29:31;;;;;;;;;19.00;18.00;;;;;27.12;43.98;98707.59;5075592;28;45448;-72
2023/08/25 03:31:58;;;;;;;;;17.00;16.50;;;;;27.06;43.94;98698.31;5073935;28;45888;-71
2023/08/25 03:34:23;;;;;;;;;20.50;18.50;;;;;27.04;43.75;98689.53;5075241;28;45515;-72
2023/08/25 03:36:48;;;;;;;;;19.50;17.75;;;;;27.05;43.67;98691.22;5074890;28;45361;-71
2023/08/25 03:39:14;;;;;;;;;21.75;18.00;;;;;27.07;43.94;98694.59;5075034;28;45631;-72
2023/08/25 03:41:39;;;;;;;;;17.50;16.75;;;;;27.08;43.70;98700.84;5074997;28;45367;-72
2023/08/25 03:44:04;;;;;;;;;20.00;18.25;;;;;27.13;43.64;98698.47;5075013;28;46290;-71
2023/08/25 03:46:31;;;;;;;;;19.25;19.00;;;;;27.16;43.27;98686.41;5074772;28;45445;-72
2023/08/25 03:48:57;;;;;;;;;17.50;17.00;;;;;27.21;43.49;98692.16;5074487;28;45331;-72
2023/08/25 03:51:22;;;;;;;;;16.00;16.00;;;;;27.25;42.87;98686.22;5074158;28;45513;-73
2023/08/25 03:53:48;;;;;;;;;20.25;18.00;;;;;27.30;42.93;98683.81;5074824;28;45419;-73
2023/08/25 03:56:13;;;;;;;;;17.75;16.50;;;;;27.35;43.18;98692.22;5074839;28;45430;-72
2023/08/25 03:58:39;;;;;;;;;20.00;18.50;;;;;27.39;43.05;98687.31;5074826;28;45522;-72
2023/08/25 04:01:04;;;;;;;;;14.50;14.50;;;;;27.45;42.41;98686.59;5074898;28;45397;-72
2023/08/25 04:03:29;;;;;;;;;20.75;17.50;;;;;27.48;42.28;98690.81;5074902;28;46349;-72
2023/08/25 04:05:55;;;;;;;;;21.00;16.50;;;;;27.48;42.35;98688.94;5074109;28;45422;-72
2023/08/25 04:08:20;;;;;;;;;16.75;16.00;;;;;27.44;42.67;98698.44;5074981;28;45403;-72
2023/08/25 04:10:46;;;;;;;;;16.25;15.50;;;;;27.29;43.50;98690.25;5074683;28;45447;-72
2023/08/25 04:13:12;;;;;;;;;11.50;11.50;;;;;27.14;43.57;98686.63;5074359;28;45483;-73
2023/08/25 04:15:37;;;;;;;;;20.50;19.00;;;;;26.99;43.79;98705.44;5074522;28;45362;-72
2023/08/25 04:18:03;;;;;;;;;18.00;16.00;;;;;26.92;43.84;98698.19;5074827;28;45362;-73
2023/08/25 04:20:28;;;;;;;;;19.75;17.00;;;;;26.83;44.13;98705.47;5076815;28;45331;-72
2023/08/25 04:22:54;;;;;;;;;16.00;15.25;;;;;26.74;44.41;98726.31;5077736;28;46268;-72
2023/08/25 04:25:19;;;;;;;;;18.50;16.50;;;;;26.66;44.64;98715.50;5078300;28;45335;-72
2023/08/25 04:27:45;;;;;;;;;16.25;15.25;;;;;26.61;44.61;98722.47;5078185;28;45400;-72
2023/08/25 04:30:10;;;;;;;;;18.00;16.25;;;;;26.52;44.69;98734.28;5078246;28;45380;-73
2023/08/25 04:32:36;;;;;;;;;16.50;16.50;;;;;26.45;45.51;98734.16;5077886;28;46556;-72
2023/08/25 04:35:01;;;;;;;;;17.00;14.50;;;;;26.38;45.59;98741.25;5077785;28;45381;-72
2023/08/25 04:37:27;;;;;;;;;17.50;17.50;;;;;26.29;45.49;98742.28;5077560;28;45372;-72
2023/08/25 04:39:54;;;;;;;;;16.50;16.50;;;;;26.23;45.57;98748.34;5077827;28;45553;-73
2023/08/25 04:42:20;;;;;;;;;16.00;15.00;;;;;26.18;45.23;98748.00;5076594;28;47389;-73
2023/08/25 04:44:47;;;;;;;;;15.25;13.00;;;;;26.13;45.34;98745.81;5077884;28;45330;-72
2023/08/25 04:47:12;;;;;;;;;17.00;16.50;;;;;26.09;45.99;98744.47;5077737;28;45464;-74
2023/08/25 04:49:38;;;;;;;;;20.50;15.75;;;;;26.04;45.90;98758.47;5077894;28;45298;-72
2023/08/25 04:52:03;;;;;;;;;11.50;11.50;;;;;25.99;46.16;98751.88;5077228;28;45705;-72
2023/08/25 04:54:29;;;;;;;;;14.75;14.75;;;;;25.96;46.29;98752.22;5077644;28;45312;-73
2023/08/25 04:56:54;;;;;;;;;15.75;14.25;;;;;25.91;46.34;98768.94;5077589;28;45432;-73
2023/08/25 04:59:19;;;;;;;;;17.25;15.00;;;;;25.87;46.68;98766.72;5077510;28;45344;-72
2023/08/25 05:01:45;;;;;;;;;17.50;14.00;;;;;25.84;47.29;98769.75;5077449;28;46352;-72
2023/08/25 05:04:11;;;;;;;;;16.00;15.00;;;;;25.78;47.12;98763.19;5077573;28;45310;-73
2023/08/25 05:06:37;;;;;;;;;14.50;14.50;;;;;25.76;47.39;98762.50;5077001;28;45367;-72
2023/08/25 05:09:03;;;;;;;;;17.50;16.25;;;;;25.71;47.16;98757.59;5077054;28;45379;-73
2023/08/25 05:11:28;;;;;;;;;15.00;14.00;;;;;25.69;48.17;98759.59;5076972;28;46837;-73
2023/08/25 05:13:54;;;;;;;;;11.75;11.25;;;;;25.70;47.53;98765.84;5077432;28;45405;-72
2023/08/25 05:16:19;;;;;;;;;17.00;16.50;;;;;25.70;47.53;98771.25;5077628;28;45592;-72
2023/08/25 05:18:45;;;;;;;;;16.50;15.75;;;;;25.65;48.32;98781.69;5077229;27;45415;-72
2023/08/25 05:21:10;;;;;;;;;17.25;15.50;;;;;25.61;48.74;98788.44;5075640;28;47365;-73
2023/08/25 05:23:36;;;;;;;;;15.75;15.00;;;;;25.54;48.35;98796.31;5077159;28;45419;-73
2023/08/25 05:26:03;;;;;;;;;14.75;14.75;;;;;25.49;49.41;98787.03;5077222;28;45503;-72
2023/08/25 05:28:28;;;;;;;;;16.25;15.75;;;;;25.47;49.08;98780.97;5076830;28;45413;-72
2023/08/25 05:30:54;;;;;;;;;12.50;12.50;;;;;25.43;49.47;98780.44;5075847;28;46137;-72
2023/08/25 05:33:19;;;;;;;;;15.00;13.00;;;;;25.40;50.71;98778.06;5076467;28;45495;-72
2023/08/25 05:35:45;;;;;;;;;16.75;16.00;;;;;25.35;50.83;98773.16;5077068;28;45358;-73
2023/08/25 05:38:10;;;;;;;;;16.00;15.00;;;;;25.29;50.53;98784.63;5076607;28;45359;-73
2023/08/25 05:40:35;;;;;;;;;15.00;15.00;;;;;25.29;51.57;98778.38;5076592;28;45454;-73
2023/08/25 05:43:01;;;;;;;;;15.50;13.50;;;;;25.28;50.70;98779.38;5076535;28;45309;-73
2023/08/25 05:45:26;;;;;;;;;17.50;15.00;;;;;25.27;51.48;98775.00;5076619;28;45358;-74
2023/08/25 05:47:51;;;;;;;;;16.75;15.25;;;;;25.27;50.95;98783.09;5076422;28;45510;-73
2023/08/25 05:50:17;;;;;;;;;16.75;16.75;;;;;25.29;51.22;98768.44;5076587;28;45399;-73
2023/08/25 05:52:45;;;;;;;;;13.00;13.00;;;;;25.31;50.99;98779.88;5074627;28;45536;-73
2023/08/25 05:55:13;;;;;;;;;16.75;14.50;;;;;25.40;51.24;98780.75;5076486;28;45427;-73
2023/08/25 05:57:38;;;;;;;;;15.50;14.00;;;;;25.45;51.22;98780.28;5076346;28;45523;-73
2023/08/25 06:00:05;;;;;;;;;14.50;14.50;;;;;25.47;51.29;98772.88;5076015;28;45465;-74
2023/08/25 06:02:32;;;;;;;;;14.80;14.60;;;;;25.49;51.78;98776.22;5074888;28;45432;-73
2023/08/25 06:04:58;;;;;;;;;15.50;14.75;;;;;25.52;51.29;98789.41;5076128;28;45656;-73
2023/08/25 06:07:23;;;;;;;;;16.50;16.25;;;;;25.55;51.80;98783.69;5075325;28;45446;-73
2023/08/25 06:09:48;;;;;;;;;16.25;15.25;;;;;25.56;52.46;98777.28;5075950;28;45689;-73
2023/08/25 06:12:14;;;;;;;;;17.25;17.25;;;;;25.54;52.40;98773.88;5076199;28;45298;-73
2023/08/25 06:14:39;;;;;;;;;17.50;16.75;;;;;25.54;51.02;98790.09;5076513;28;45463;-73
2023/08/25 06:17:05;;;;;;;;;16.50;16.00;;;;;25.57;51.47;98770.88;5075902;28;45546;-73
2023/08/25 06:19:30;;;;;;;;;16.50;16.00;;;;;25.57;51.73;98787.06;5075749;28;45412;-73
2023/08/25 06:21:56;;;;;;;;;13.75;13.50;;;;;25.56;51.55;98790.78;5075461;28;45424;-73
2023/08/25 06:24:22;;;;;;;;;19.25;16.50;;;;;25.62;52.01;98774.81;5076264;28;45476;-73
2023/08/25 06:26:47;;;;;;;;;17.50;17.50;;;;;25.63;52.32;98779.19;5075283;28;45403;-73
2023/08/25 06:29:13;;;;;;;;;15.25;13.50;;;;;25.62;51.94;98785.59;5075282;28;45545;-73
2023/08/25 06:31:38;;;;;;;;;15.75;15.50;;;;;25.67;51.85;98795.88;5075056;28;45439;-73
2023/08/25 06:34:04;;;;;;;;;18.25;15.25;;;;;25.70;52.25;98798.25;5074566;28;45351;-74
2023/08/25 06:36:32;;;;;;;;;17.75;15.25;;;;;25.72;51.83;98785.44;5075225;28;45658;-74
2023/08/25 06:38:57;;;;;;;;;15.50;14.25;;;;;25.74;52.39;98796.94;5073219;28;47025;-75
2023/08/25 06:41:23;;;;;;;;;19.00;17.25;;;;;25.78;52.46;98795.59;5074621;28;45411;-73
2023/08/25 06:43:48;;;;;;;;;14.75;14.50;;;;;25.83;52.43;98792.38;5074286;28;45442;-73
2023/08/25 06:46:14;;;;;;;;;15.50;15.50;;;;;25.85;52.87;98807.41;5074148;28;45479;-73
2023/08/25 06:48:39;;;;;;;;;15.00;15.00;;;;;25.92;52.37;98807.59;5074376;28;46686;-73
2023/08/25 06:51:05;;;;;;;;;17.75;13.75;;;;;25.98;53.24;98805.06;5074108;28;45382;-73
2023/08/25 06:53:30;;;;;;;;;15.50;14.25;;;;;26.04;52.44;98798.16;5073106;28;45444;-73
2023/08/25 06:55:56;;;;;;;;;14.25;14.00;;;;;26.13;52.67;98799.84;5074844;28;45486;-72
2023/08/25 06:58:21;;;;;;;;;15.50;13.25;;;;;26.20;51.73;98795.44;5074284;28;46464;-73
2023/08/25 07:00:47;;;;;;;;;14.00;12.25;;;;;26.31;51.14;98818.66;5074612;28;45342;-73
2023/08/25 07:03:13;;;;;;;;;18.75;17.00;;;;;26.43;51.35;98801.06;5074448;27;45447;-73
2023/08/25 07:05:38;;;;;;;;;22.75;20.50;;;;;26.54;50.61;98814.22;5074336;28;45364;-72
2023/08/25 07:08:07;;;;;;;;;42.00;35.67;;;;;26.75;49.90;98827.22;5073084;28;47163;-73
2023/08/25 07:10:34;;;;;;;;;18.25;16.25;;;;;26.86;49.07;98832.28;5074311;28;45430;-74
2023/08/25 07:13:00;;;;;;;;;17.75;17.00;;;;;26.98;48.96;98839.03;5073225;28;45557;-73
2023/08/25 07:15:25;;;;;;;;;20.00;18.00;;;;;27.12;50.10;98858.31;5074360;28;45381;-74
2023/08/25 07:17:51;;;;;;;;;16.00;15.25;;;;;27.12;49.92;98850.19;5074171;28;46258;-74
2023/08/25 07:20:17;;;;;;;;;18.00;16.25;;;;;27.04;50.80;98853.75;5072377;28;45456;-74
2023/08/25 07:22:42;;;;;;;;;12.50;12.00;;;;;26.97;50.60;98845.50;5073891;28;45518;-74
2023/08/25 07:25:08;;;;;;;;;13.50;13.25;;;;;26.91;50.53;98862.38;5074110;28;45565;-75
2023/08/25 07:27:34;;;;;;;;;14.25;14.25;;;;;26.88;50.30;98886.22;5074069;27;46783;-74
2023/08/25 07:29:59;;;;;;;;;17.00;16.00;;;;;26.85;49.96;98868.47;5074117;28;46021;-73
2023/08/25 07:32:25;;;;;;;;;15.00;15.00;;;;;26.82;50.10;98884.19;5074289;28;45836;-74
2023/08/25 07:34:50;;;;;;;;;16.25;15.25;;;;;26.80;49.99;98894.34;5073884;28;45360;-74
2023/08/25 07:37:15;;;;;;;;;20.00;18.50;;;;;26.82;49.53;98905.81;5073563;28;45851;-74
2023/08/25 07:39:41;;;;;;;;;21.25;21.00;;;;;26.90;49.51;98922.91;5073713;28;45398;-75
2023/08/25 07:42:08;;;;;;;;;20.25;19.00;;;;;26.99;48.67;98943.56;5073308;28;45472;-74
2023/08/25 07:44:35;;;;;;;;;18.50;18.00;;;;;27.06;48.06;98952.69;5089020;27;45697;-74
2023/08/25 07:47:00;;;;;;;;;13.75;13.75;;;;;27.16;48.53;98925.44;5073380;28;46277;-74
2023/08/25 07:49:26;;;;;;;;;19.75;17.00;;;;;27.20;48.62;98961.97;5073384;28;45427;-74
2023/08/25 07:51:51;;;;;;;;;14.00;14.00;;;;;27.17;49.11;98973.16;5072512;28;45508;-74
2023/08/25 07:54:16;;;;;;;;;8.75;8.50;;;;;27.15;48.88;98985.19;5073041;28;45449;-75
2023/08/25 07:56:42;;;;;;;;;12.75;11.50;;;;;27.12;49.91;98988.22;5073622;28;45412;-75
2023/08/25 07:59:07;;;;;;;;;20.67;20.67;;;;;27.03;50.77;98987.38;5073484;28;45439;-74
2023/08/25 08:01:33;;;;;;;;;7.75;7.75;;;;;26.89;51.64;98988.00;5073920;28;45555;-77
2023/08/25 08:03:58;;;;;;;;;12.75;11.00;;;;;26.72;51.70;99012.34;5073939;28;45439;-75
2023/08/25 08:06:24;;;;;;;;;34.00;29.33;;;;;26.62;52.73;99006.25;5073029;28;45583;-72
2023/08/25 08:08:50;;;;;;;;;17.00;14.00;;;;;26.62;52.29;99019.78;5073412;28;45466;-75
2023/08/25 08:11:15;;;;;;;;;13.00;13.00;;;;;26.64;50.23;99028.56;5073543;27;45447;-74
2023/08/25 08:13:40;;;;;;;;;15.75;15.00;;;;;26.74;49.64;99029.25;5073710;28;45400;-73
2023/08/25 08:16:06;;;;;;;;;20.00;18.25;;;;;26.83;49.30;99038.22;5073480;28;46633;-74
2023/08/25 08:18:31;;;;;;;;;17.75;14.50;;;;;26.88;52.23;99054.81;5072472;28;45918;-76
2023/08/25 08:20:57;;;;;;;;;19.25;17.00;;;;;26.80;52.53;99067.47;5073069;28;45723;-76
2023/08/25 08:23:23;;;;;;;;;20.00;19.00;;;;;26.72;51.53;99069.16;5073337;28;45545;-75
2023/08/25 08:25:49;;;;;;;;;19.50;18.75;;;;;26.75;51.93;99067.97;5072028;27;47405;-75
2023/08/25 08:28:15;;;;;;;;;21.75;21.50;;;;;26.79;51.87;99079.31;5072081;28;46488;-75
2023/08/25 08:30:41;;;;;;;;;27.25;26.00;;;;;26.87;52.54;99098.25;5073307;27;45634;-74
2023/08/25 08:33:07;;;;;;;;;30.25;26.75;;;;;26.94;53.68;99094.78;5073484;28;45450;-75
2023/08/25 08:35:33;;;;;;;;;25.50;22.25;;;;;27.00;54.39;99115.72;5073108;28;45646;-74
2023/08/25 08:37:58;;;;;;;;;26.33;23.33;;;;;27.05;54.28;99117.94;5072960;28;45349;-76
2023/08/25 08:40:24;;;;;;;;;24.25;22.50;;;;;27.08;54.05;99120.31;5073913;28;45600;-76
2023/08/25 08:42:53;;;;;;;;;26.00;25.67;;;;;27.10;55.02;99119.16;5073822;28;45352;-76
2023/08/25 08:45:24;;;;;;;;;26.00;24.67;;;;;27.13;55.06;99117.97;5073108;28;45471;-76
2023/08/25 08:47:50;;;;;;;;;28.33;25.33;;;;;27.15;54.62;99121.34;5072804;28;45360;-76
2023/08/25 08:50:16;;;;;;;;;21.00;19.75;;;;;27.16;53.00;99136.56;5073468;28;45423;-77
2023/08/25 08:52:43;;;;;;;;;23.00;20.50;;;;;27.19;49.57;99147.06;5072531;28;45550;-78
2023/08/25 08:55:09;;;;;;;;;16.50;16.25;;;;;27.29;48.36;99138.81;5072700;28;45810;-76
2023/08/25 08:57:35;;;;;;;;;23.50;21.50;;;;;27.45;48.08;99146.94;5072538;28;45502;-76
2023/08/25 09:00:09;;;;;;;;;16.00;16.00;;;;;27.61;48.51;99156.97;5073067;28;45458;-75
2023/08/25 09:02:35;;;;;;;;;16.00;16.00;;;;;27.71;47.08;99149.50;5073062;28;45502;-75
2023/08/25 09:05:02;;;;;;;;;14.00;14.00;;;;;27.77;48.48;99162.38;5071655;27;46221;-75
2023/08/25 09:07:32;;;;;;;;;11.25;11.25;;;;;27.74;48.35;99146.47;5075967;28;45510;-75
2023/08/25 09:09:58;;;;;;;;;20.50;17.75;;;;;27.76;48.35;99147.16;5076282;27;45482;-75
2023/08/25 09:12:24;;;;;;;;;18.00;16.75;;;;;27.87;48.63;99138.66;5076256;27;45459;-75
2023/08/25 09:14:49;;;;;;;;;17.25;14.25;;;;;28.01;47.51;99156.94;5076122;28;45450;-74
2023/08/25 09:17:15;;;;;;;;;14.25;13.50;;;;;28.10;47.18;99146.94;5076401;28;45574;-75
2023/08/25 09:19:41;;;;;;;;;12.75;11.50;;;;;28.11;47.65;99130.50;5074949;28;45434;-72
2023/08/25 09:22:13;;;;;;;;;18.25;16.75;;;;;28.04;48.11;99113.22;5075002;27;45417;-74
2023/08/25 09:24:42;;;;;;;;;23.50;22.50;;;;;28.00;48.52;99092.91;5075290;27;45585;-74
2023/08/25 09:27:20;;;;;;;;;19.25;17.50;;;;;28.02;48.12;99066.47;5074321;28;45420;-75
2023/08/25 09:29:46;;;;;;;;;21.25;21.25;;;;;28.06;48.71;99065.09;5076485;27;45376;-74
2023/08/25 09:32:14;;;;;;;;;27.75;27.00;;;;;28.14;50.15;99085.94;5076084;28;45298;-74
2023/08/25 09:34:40;;;;;;;;;15.25;14.25;;;;;28.17;48.52;99107.25;5075994;28;46201;-74
2023/08/25 09:37:07;;;;;;;;;21.50;18.50;;;;;28.09;49.55;99101.88;5075142;28;45388;-76
2023/08/25 09:39:44;;;;;;;;;16.50;16.50;;;;;27.95;50.42;99086.31;5075950;28;45403;-74
2023/08/25 09:42:10;;;;;;;;;20.00;18.25;;;;;27.83;51.10;99063.28;5076005;28;45313;-74
2023/08/25 09:44:35;;;;;;;;;22.50;18.75;;;;;27.81;50.30;99047.25;5075549;28;45458;-74
2023/08/25 09:47:02;;;;;;;;;18.00;16.25;;;;;27.87;50.34;99024.00;5075269;28;45367;-75
2023/08/25 09:49:40;;;;;;;;;10.75;9.75;;;;;27.97;50.60;99014.66;5075228;28;45474;-74
2023/08/25 09:52:09;;;;;;;;;18.50;16.00;;;;;28.04;49.66;99017.50;5073640;28;45417;-75
2023/08/25 09:54:34;;;;;;;;;18.75;16.75;;;;;28.16;48.64;99016.09;5074556;28;46585;-74
2023/08/25 09:57:01;;;;;;;;;14.75;13.50;;;;;28.26;48.12;99005.09;5075199;28;45342;-75
2023/08/25 09:59:27;;;;;;;;;15.50;14.50;;;;;28.32;47.29;98999.78;5075995;28;45536;-74
2023/08/25 10:01:53;;;;;;;;;13.50;13.00;;;;;28.40;47.33;98990.78;5075660;28;45255;-73
2023/08/25 10:04:18;;;;;;;;;15.50;14.25;;;;;28.46;46.49;98995.50;5075729;28;45417;-74
2023/08/25 10:06:44;;;;;;;;;15.25;12.75;;;;;28.47;46.58;98972.78;5074865;28;45434;-75
2023/08/25 10:09:09;;;;;;;;;13.00;9.50;;;;;28.44;46.07;98952.28;5075374;28;45375;-74
2023/08/25 10:11:44;;;;;;;;;12.50;12.50;;;;;28.49;45.96;98941.69;5075460;27;45436;-75
2023/08/25 10:14:12;;;;;;;;;14.25;14.25;;;;;28.57;45.35;98935.41;5075425;27;46155;-74
2023/08/25 10:16:41;;;;;;;;;14.00;13.50;;;;;28.69;44.63;98922.25;5074850;27;45374;-73
2023/08/25 10:19:14;;;;;;;;;10.00;10.00;;;;;28.79;44.39;98906.56;5074807;27;45402;-74
2023/08/25 10:21:43;;;;;;;;;12.25;11.00;;;;;28.86;43.79;98910.25;5074645;27;45431;-74
2023/08/25 10:24:10;;;;;;;;;12.50;12.50;;;;;28.93;42.95;98894.09;5074719;27;45318;-74
2023/08/25 10:26:36;;;;;;;;;12.00;11.20;;;;;29.02;43.22;98885.66;5074778;27;45406;-74
2023/08/25 10:29:03;;;;;;;;;11.25;10.25;;;;;29.11;43.09;98886.44;5074924;27;45440;-74
2023/08/25 10:31:30;;;;;;;;;13.50;12.75;;;;;29.23;41.72;98876.81;5073578;28;45866;-73
2023/08/25 10:33:56;;;;;;;;;13.00;12.50;;;;;29.30;41.34;98872.34;5074407;28;45700;-74
2023/08/25 10:36:22;;;;;;;;;13.00;11.75;;;;;29.42;40.99;98876.28;5073753;27;45370;-74
2023/08/25 10:38:54;;;;;;;;;13.50;12.50;;;;;29.58;40.63;98874.41;5074621;28;45430;-74
2023/08/25 10:41:20;;;;;;;;;8.75;7.75;;;;;29.74;39.26;98876.91;5074891;28;45349;-74
2023/08/25 10:43:55;;;;;;;;;12.50;12.00;;;;;29.91;39.58;98866.66;5075017;28;45713;-74
2023/08/25 10:46:22;;;;;;;;;11.25;11.25;;;;;30.08;38.13;98871.72;5074704;28;45376;-74
2023/08/25 10:49:01;;;;;;;;;12.00;11.50;;;;;30.31;38.06;98854.41;5073954;28;45432;-75
2023/08/25 10:51:26;;;;;;;;;11.75;11.50;;;;;30.50;37.51;98848.28;5073046;28;45560;-75
2023/08/25 10:53:53;;;;;;;;;12.50;12.50;;;;;30.65;37.23;98845.53;5074928;28;46601;-74
2023/08/25 10:56:21;;;;;;;;;9.40;9.40;;;;;30.78;37.24;98856.53;5075342;28;45385;-74
2023/08/25 10:58:55;;;;;;;;;20.50;20.25;;;;;30.96;38.48;98842.44;5074963;28;45391;-74
2023/08/25 11:01:27;;;;;;;;;13.75;12.25;;;;;31.13;38.25;98844.69;5074661;28;45291;-72
2023/08/25 11:04:31;;;;;;;;;13.50;12.50;;;;;31.29;37.71;98835.34;5074684;28;46345;-75
2023/08/25 11:06:58;;;;;;;;;13.25;13.25;;;;;31.45;37.04;98826.00;5070745;28;45380;-73
2023/08/25 11:09:24;;;;;;;;;10.75;10.75;;;;;31.58;37.17;98823.31;5073992;28;45398;-73
2023/08/25 11:11:56;;;;;;;;;19.00;15.00;;;;;31.73;37.38;98836.84;5074429;27;45433;-73
2023/08/25 11:14:28;;;;;;;;;15.50;14.75;;;;;31.83;37.05;98827.25;5074498;27;45533;-74